Thunder radar more information blitzortung!


Radar de pluja more information rain snow radar


Visita la nostra xarxa de llocs de meteo:

Template documentation
and downloads

And another site



Wind From: 11-12-2017 11:00 Until: 14:59 warning for: Wind Level: Yellow info button

Pagina Historial Weather Underground text

Diari Resum Octubre 16, 2017 Unitats:  Tant    Imperial   Mètric
« Previous Dia
SegĂźent Dia »
Diari Setmana Mensual Anual Personalitzada
  Maxima: Minima: Media:
Temperatura: 77.2 °F /  25.1 °C 58.1 °F /  14.5 °C 66 °F /  18.9 °C
Punt de rosada: 62.6 °F /  17.0 °C 54 °F /  12.2 °C 57.7 °F /  14.3 °C
Humitat: 94 % 55 % 76 %
Wind Speed: 9.2 mph /  14.8 km/h - 1.9 mph /  3.1 km/h
RĂ fegues de vent: 9.2 mph /  14.8 km/h - -
Vent:- - SSE
Pression baro: 30.4 in /  1028.0 hPa 30.2 in /  1023.9 hPa -
Precipitacions: 0 in /  0.0 mm    
Historical Graphs
 
 
Dades de taula per Octubre 16, 2017
Temps Temperatura Punt de rosada Pression baro Vent Wind Speed RĂ fegues de vent Humitat Rainfall Rate (Hourly)
00:00 64.6 °F /  18.1 °C 59 °F /  15.0 °C 30.3 in /  1027.0 hPa Calm     82 % 0 in /  0.0 mm
00:05 64.4 °F /  18.0 °C 58.8 °F /  14.9 °C 30.3 in /  1027.0 hPa Calm     82 % 0 in /  0.0 mm
00:10 64.4 °F /  18.0 °C 58.8 °F /  14.9 °C 30.3 in /  1027.0 hPa Calm     82 % 0 in /  0.0 mm
00:15 64.2 °F /  17.9 °C 58.8 °F /  14.9 °C 30.3 in /  1027.0 hPa Calm     83 % 0 in /  0.0 mm
00:20 64.2 °F /  17.9 °C 58.8 °F /  14.9 °C 30.3 in /  1027.0 hPa Calm     83 % 0 in /  0.0 mm
00:25 64 °F /  17.8 °C 58.8 °F /  14.9 °C 30.3 in /  1027.0 hPa Calm     83 % 0 in /  0.0 mm
00:30 64 °F /  17.8 °C 58.8 °F /  14.9 °C 30.3 in /  1027.0 hPa Calm     83 % 0 in /  0.0 mm
00:35 64 °F /  17.8 °C 58.8 °F /  14.9 °C 30.3 in /  1027.0 hPa Calm     83 % 0 in /  0.0 mm
00:40 63.9 °F /  17.7 °C 58.6 °F /  14.8 °C 30.3 in /  1027.0 hPa Calm     83 % 0 in /  0.0 mm
00:45 63.9 °F /  17.7 °C 58.8 °F /  14.9 °C 30.3 in /  1027.0 hPa Calm     84 % 0 in /  0.0 mm
00:50 63.7 °F /  17.6 °C 58.8 °F /  14.9 °C 30.3 in /  1027.0 hPa Calm     84 % 0 in /  0.0 mm
00:55 63.7 °F /  17.6 °C 58.8 °F /  14.9 °C 30.3 in /  1027.0 hPa ENE 2.3 mph /  3.7 km/h 2.3 mph /  3.7 km/h 84 % 0 in /  0.0 mm
01:00 63.7 °F /  17.6 °C 58.8 °F /  14.9 °C 30.3 in /  1027.0 hPa Calm     84 % 0 in /  0.0 mm
01:05 63.5 °F /  17.5 °C 58.6 °F /  14.8 °C 30.3 in /  1027.0 hPa SW 2.3 mph /  3.7 km/h 2.3 mph /  3.7 km/h 84 % 0 in /  0.0 mm
01:10 63.3 °F /  17.4 °C 58.5 °F /  14.7 °C 30.3 in /  1027.0 hPa SW 2.3 mph /  3.7 km/h 2.3 mph /  3.7 km/h 84 % 0 in /  0.0 mm
01:15 63.1 °F /  17.3 °C 58.3 °F /  14.6 °C 30.3 in /  1027.0 hPa SW 1.2 mph /  1.9 km/h 1.4 mph /  2.3 km/h 84 % 0 in /  0.0 mm
01:20 63.1 °F /  17.3 °C 58.3 °F /  14.6 °C 30.3 in /  1027.0 hPa Calm     84 % 0 in /  0.0 mm
01:25 63.1 °F /  17.3 °C 58.6 °F /  14.8 °C 30.3 in /  1027.0 hPa Calm     85 % 0 in /  0.0 mm
01:30 63.1 °F /  17.3 °C 58.6 °F /  14.8 °C 30.3 in /  1027.0 hPa Calm     85 % 0 in /  0.0 mm
01:35 63.1 °F /  17.3 °C 58.6 °F /  14.8 °C 30.3 in /  1027.0 hPa SW 2.3 mph /  3.7 km/h 2.3 mph /  3.7 km/h 85 % 0 in /  0.0 mm
01:40 63.1 °F /  17.3 °C 58.6 °F /  14.8 °C 30.3 in /  1027.0 hPa SW 1.2 mph /  1.9 km/h 1.2 mph /  1.9 km/h 85 % 0 in /  0.0 mm
01:45 63.1 °F /  17.3 °C 58.8 °F /  14.9 °C 30.3 in /  1027.0 hPa Calm     86 % 0 in /  0.0 mm
01:50 63.1 °F /  17.3 °C 58.8 °F /  14.9 °C 30.3 in /  1027.0 hPa Calm     86 % 0 in /  0.0 mm
01:55 63 °F /  17.2 °C 58.6 °F /  14.8 °C 30.3 in /  1027.0 hPa Calm     86 % 0 in /  0.0 mm
02:00 63 °F /  17.2 °C 58.6 °F /  14.8 °C 30.3 in /  1027.0 hPa Calm     86 % 0 in /  0.0 mm
02:05 63 °F /  17.2 °C 58.6 °F /  14.8 °C 30.3 in /  1027.0 hPa WNW 1.2 mph /  1.9 km/h 1.2 mph /  1.9 km/h 86 % 0 in /  0.0 mm
02:10 62.8 °F /  17.1 °C 58.5 °F /  14.7 °C 30.3 in /  1027.0 hPa NE 2.3 mph /  3.7 km/h 2.3 mph /  3.7 km/h 86 % 0 in /  0.0 mm
02:15 62.8 °F /  17.1 °C 58.5 °F /  14.7 °C 30.3 in /  1027.0 hPa NE 2.3 mph /  3.7 km/h 2.3 mph /  3.7 km/h 86 % 0 in /  0.0 mm
02:20 62.6 °F /  17.0 °C 58.5 °F /  14.7 °C 30.3 in /  1027.0 hPa NNE 1.2 mph /  1.9 km/h   86 % 0 in /  0.0 mm
02:25 62.6 °F /  17.0 °C 58.5 °F /  14.7 °C 30.3 in /  1027.0 hPa NE 2.3 mph /  3.7 km/h 2.3 mph /  3.7 km/h 86 % 0 in /  0.0 mm
02:30 62.4 °F /  16.9 °C 58.5 °F /  14.7 °C 30.3 in /  1026.0 hPa NNE 1.2 mph /  1.9 km/h 1.2 mph /  1.9 km/h 87 % 0 in /  0.0 mm
02:35 62.2 °F /  16.8 °C 58.3 °F /  14.6 °C 30.3 in /  1026.0 hPa Calm     87 % 0 in /  0.0 mm
02:40 62.1 °F /  16.7 °C 57.7 °F /  14.3 °C 30.3 in /  1026.0 hPa Calm     86 % 0 in /  0.0 mm
02:45 61.9 °F /  16.6 °C 57.6 °F /  14.2 °C 30.3 in /  1027.0 hPa WNW 2.3 mph /  3.7 km/h 2.3 mph /  3.7 km/h 86 % 0 in /  0.0 mm
02:50 61.9 °F /  16.6 °C 57.9 °F /  14.4 °C 30.3 in /  1027.0 hPa Calm     87 % 0 in /  0.0 mm
02:55 61.7 °F /  16.5 °C 57.7 °F /  14.3 °C 30.3 in /  1027.0 hPa Calm     87 % 0 in /  0.0 mm
03:00 61.7 °F /  16.5 °C 57.7 °F /  14.3 °C 30.3 in /  1026.0 hPa Calm     87 % 0 in /  0.0 mm
03:05 61.5 °F /  16.4 °C 57.6 °F /  14.2 °C 30.3 in /  1026.0 hPa Calm     87 % 0 in /  0.0 mm
03:10 61.5 °F /  16.4 °C 57.6 °F /  14.2 °C 30.3 in /  1026.0 hPa Calm     87 % 0 in /  0.0 mm
03:15 61.3 °F /  16.3 °C 57.7 °F /  14.3 °C 30.3 in /  1026.0 hPa Calm     88 % 0 in /  0.0 mm
03:20 61.3 °F /  16.3 °C 57.7 °F /  14.3 °C 30.3 in /  1026.0 hPa Calm     88 % 0 in /  0.0 mm
03:25 61.3 °F /  16.3 °C 57.7 °F /  14.3 °C 30.3 in /  1026.0 hPa Calm     88 % 0 in /  0.0 mm
03:30 61.2 °F /  16.2 °C 57.6 °F /  14.2 °C 30.3 in /  1026.0 hPa Calm     88 % 0 in /  0.0 mm
03:35 61.2 °F /  16.2 °C 57.6 °F /  14.2 °C 30.3 in /  1026.0 hPa Calm     88 % 0 in /  0.0 mm
03:40 61.2 °F /  16.2 °C 57.6 °F /  14.2 °C 30.3 in /  1026.0 hPa Calm     88 % 0 in /  0.0 mm
03:45 61 °F /  16.1 °C 57.4 °F /  14.1 °C 30.3 in /  1026.0 hPa Calm     88 % 0 in /  0.0 mm
03:50 61 °F /  16.1 °C 57.4 °F /  14.1 °C 30.3 in /  1026.0 hPa Calm     88 % 0 in /  0.0 mm
03:55 60.8 °F /  16.0 °C 57.2 °F /  14.0 °C 30.3 in /  1026.0 hPa Calm     88 % 0 in /  0.0 mm
04:00 60.6 °F /  15.9 °C 57 °F /  13.9 °C 30.3 in /  1026.0 hPa Calm     88 % 0 in /  0.0 mm
04:05 60.6 °F /  15.9 °C 57.4 °F /  14.1 °C 30.3 in /  1026.0 hPa Calm     89 % 0 in /  0.0 mm
04:10 60.6 °F /  15.9 °C 57.4 °F /  14.1 °C 30.3 in /  1026.0 hPa Calm     89 % 0 in /  0.0 mm
04:15 60.4 °F /  15.8 °C 57.2 °F /  14.0 °C 30.3 in /  1024.9 hPa Calm     89 % 0 in /  0.0 mm
04:20 60.4 °F /  15.8 °C 57.2 °F /  14.0 °C 30.3 in /  1024.9 hPa Calm     89 % 0 in /  0.0 mm
04:25 60.4 °F /  15.8 °C 57.2 °F /  14.0 °C 30.3 in /  1024.9 hPa Calm     89 % 0 in /  0.0 mm
04:30 60.3 °F /  15.7 °C 57 °F /  13.9 °C 30.3 in /  1026.0 hPa Calm     89 % 0 in /  0.0 mm
04:35 60.3 °F /  15.7 °C 57 °F /  13.9 °C 30.3 in /  1026.0 hPa Calm     89 % 0 in /  0.0 mm
04:40 60.1 °F /  15.6 °C 56.8 °F /  13.8 °C 30.3 in /  1026.0 hPa Calm     89 % 0 in /  0.0 mm
04:45 59.7 °F /  15.4 °C 56.5 °F /  13.6 °C 30.3 in /  1026.0 hPa West 2 mph /  3.2 km/h   89 % 0 in /  0.0 mm
04:50 59.5 °F /  15.3 °C 55.9 °F /  13.3 °C 30.3 in /  1026.0 hPa West 2.3 mph /  3.7 km/h 2.3 mph /  3.7 km/h 88 % 0 in /  0.0 mm
04:55 59.7 °F /  15.4 °C 56.5 °F /  13.6 °C 30.3 in /  1026.0 hPa West 1.2 mph /  1.9 km/h   89 % 0 in /  0.0 mm
05:00 59.5 °F /  15.3 °C 56.3 °F /  13.5 °C 30.3 in /  1024.9 hPa Calm     89 % 0 in /  0.0 mm
05:05 59.5 °F /  15.3 °C 56.7 °F /  13.7 °C 30.3 in /  1024.9 hPa Calm     90 % 0 in /  0.0 mm
05:10 59.5 °F /  15.3 °C 56.7 °F /  13.7 °C 30.3 in /  1024.9 hPa Calm     90 % 0 in /  0.0 mm
05:15 59.5 °F /  15.3 °C 56.7 °F /  13.7 °C 30.3 in /  1024.9 hPa Calm     90 % 0 in /  0.0 mm
05:20 59.7 °F /  15.4 °C 56.8 °F /  13.8 °C 30.3 in /  1024.9 hPa Calm     90 % 0 in /  0.0 mm
05:25 59.9 °F /  15.5 °C 57 °F /  13.9 °C 30.3 in /  1024.9 hPa West 1.4 mph /  2.3 km/h 1.4 mph /  2.3 km/h 90 % 0 in /  0.0 mm
05:30 60.1 °F /  15.6 °C 57 °F /  13.9 °C 30.3 in /  1026.0 hPa West 1.2 mph /  1.9 km/h   90 % 0 in /  0.0 mm
05:35 59.9 °F /  15.5 °C 57.4 °F /  14.1 °C 30.3 in /  1026.0 hPa Calm     91 % 0 in /  0.0 mm
05:40 59.9 °F /  15.5 °C 57.4 °F /  14.1 °C 30.3 in /  1026.0 hPa Calm     91 % 0 in /  0.0 mm
05:45 60.1 °F /  15.6 °C 57.4 °F /  14.1 °C 30.3 in /  1024.9 hPa Calm     91 % 0 in /  0.0 mm
05:50 60.1 °F /  15.6 °C 57.4 °F /  14.1 °C 30.3 in /  1024.9 hPa Calm     91 % 0 in /  0.0 mm
05:55 60.1 °F /  15.6 °C 57.4 °F /  14.1 °C 30.3 in /  1024.9 hPa Calm     91 % 0 in /  0.0 mm
06:00 59.9 °F /  15.5 °C 57.4 °F /  14.1 °C 30.3 in /  1024.9 hPa Calm     91 % 0 in /  0.0 mm
06:05 59.7 °F /  15.4 °C 57 °F /  13.9 °C 30.3 in /  1024.9 hPa Calm     91 % 0 in /  0.0 mm
06:10 59.7 °F /  15.4 °C 57 °F /  13.9 °C 30.3 in /  1024.9 hPa Calm     91 % 0 in /  0.0 mm
06:15 59.7 °F /  15.4 °C 57 °F /  13.9 °C 30.3 in /  1026.0 hPa NW 1.2 mph /  1.9 km/h   91 % 0 in /  0.0 mm
06:20 59.7 °F /  15.4 °C 57 °F /  13.9 °C 30.3 in /  1026.0 hPa Calm     91 % 0 in /  0.0 mm
06:22 59.7 °F /  15.4 °C 57 °F /  13.9 °C 30.3 in /  1026.0 hPa Calm     91 % 0 in /  0.0 mm
06:27 59.4 °F /  15.2 °C 56.7 °F /  13.7 °C 30.3 in /  1024.9 hPa Calm     91 % 0 in /  0.0 mm
06:32 59 °F /  15.0 °C 56.5 °F /  13.6 °C 30.3 in /  1024.9 hPa West 2.3 mph /  3.7 km/h 2.3 mph /  3.7 km/h 91 % 0 in /  0.0 mm
06:37 58.6 °F /  14.8 °C 55.8 °F /  13.2 °C 30.3 in /  1024.9 hPa Calm     90 % 0 in /  0.0 mm
06:42 58.8 °F /  14.9 °C 55.9 °F /  13.3 °C 30.3 in /  1026.0 hPa Calm     90 % 0 in /  0.0 mm
06:47 58.8 °F /  14.9 °C 56.1 °F /  13.4 °C 30.3 in /  1026.0 hPa Calm     91 % 0 in /  0.0 mm
06:52 58.8 °F /  14.9 °C 56.1 °F /  13.4 °C 30.3 in /  1026.0 hPa West 2.3 mph /  3.7 km/h 2.3 mph /  3.7 km/h 91 % 0 in /  0.0 mm
06:57 58.8 °F /  14.9 °C 56.1 °F /  13.4 °C 30.3 in /  1026.0 hPa West 1.2 mph /  1.9 km/h 1.2 mph /  1.9 km/h 91 % 0 in /  0.0 mm
07:02 59 °F /  15.0 °C 56.5 °F /  13.6 °C 30.3 in /  1026.0 hPa Calm     91 % 0 in /  0.0 mm
07:07 59 °F /  15.0 °C 56.7 °F /  13.7 °C 30.3 in /  1026.0 hPa Calm     92 % 0 in /  0.0 mm
07:12 59 °F /  15.0 °C 56.7 °F /  13.7 °C 30.3 in /  1026.0 hPa SW 1.2 mph /  1.9 km/h   92 % 0 in /  0.0 mm
07:17 58.6 °F /  14.8 °C 56.3 °F /  13.5 °C 30.3 in /  1026.0 hPa Calm     92 % 0 in /  0.0 mm
07:22 58.5 °F /  14.7 °C 55.8 °F /  13.2 °C 30.3 in /  1026.0 hPa Calm     91 % 0 in /  0.0 mm
07:27 58.5 °F /  14.7 °C 55.8 °F /  13.2 °C 30.3 in /  1026.0 hPa Calm     91 % 0 in /  0.0 mm
07:32 58.3 °F /  14.6 °C 55.8 °F /  13.2 °C 30.3 in /  1026.0 hPa Calm     91 % 0 in /  0.0 mm
07:37 58.3 °F /  14.6 °C 55.8 °F /  13.2 °C 30.3 in /  1026.0 hPa Calm     91 % 0 in /  0.0 mm
07:42 58.3 °F /  14.6 °C 55.8 °F /  13.2 °C 30.3 in /  1026.0 hPa Calm     91 % 0 in /  0.0 mm
07:47 58.1 °F /  14.5 °C 55.6 °F /  13.1 °C 30.3 in /  1026.0 hPa Calm     91 % 0 in /  0.0 mm
07:52 58.1 °F /  14.5 °C 55.6 °F /  13.1 °C 30.3 in /  1026.0 hPa Calm     91 % 0 in /  0.0 mm
07:57 58.3 °F /  14.6 °C 55.8 °F /  13.2 °C 30.3 in /  1026.0 hPa Calm     91 % 0 in /  0.0 mm
08:02 58.5 °F /  14.7 °C 56.1 °F /  13.4 °C 30.3 in /  1026.0 hPa Calm     92 % 0 in /  0.0 mm
08:07 58.6 °F /  14.8 °C 56.3 °F /  13.5 °C 30.3 in /  1026.0 hPa Calm     92 % 0 in /  0.0 mm
08:12 58.6 °F /  14.8 °C 56.3 °F /  13.5 °C 30.3 in /  1026.0 hPa Calm     92 % 0 in /  0.0 mm
08:17 58.5 °F /  14.7 °C 56.1 °F /  13.4 °C 30.3 in /  1026.0 hPa Calm     92 % 0 in /  0.0 mm
08:22 58.5 °F /  14.7 °C 56.1 °F /  13.4 °C 30.3 in /  1026.0 hPa Calm     92 % 0 in /  0.0 mm
08:27 58.6 °F /  14.8 °C 56.7 °F /  13.7 °C 30.3 in /  1027.0 hPa Calm     93 % 0 in /  0.0 mm
08:32 58.8 °F /  14.9 °C 56.8 °F /  13.8 °C 30.3 in /  1027.0 hPa Calm     93 % 0 in /  0.0 mm
08:37 58.8 °F /  14.9 °C 56.8 °F /  13.8 °C 30.3 in /  1027.0 hPa Calm     93 % 0 in /  0.0 mm
08:42 59 °F /  15.0 °C 57 °F /  13.9 °C 30.3 in /  1027.0 hPa Calm     93 % 0 in /  0.0 mm
08:47 59 °F /  15.0 °C 57 °F /  13.9 °C 30.3 in /  1027.0 hPa Calm     93 % 0 in /  0.0 mm
08:52 59.4 °F /  15.2 °C 57.6 °F /  14.2 °C 30.3 in /  1027.0 hPa Calm     94 % 0 in /  0.0 mm
08:57 59.4 °F /  15.2 °C 57.4 °F /  14.1 °C 30.3 in /  1027.0 hPa Calm     93 % 0 in /  0.0 mm
09:02 59.5 °F /  15.3 °C 57.6 °F /  14.2 °C 30.3 in /  1027.0 hPa Calm     93 % 0 in /  0.0 mm
09:07 59.9 °F /  15.5 °C 57.9 °F /  14.4 °C 30.3 in /  1027.0 hPa Calm     93 % 0 in /  0.0 mm
09:12 60.4 °F /  15.8 °C 58.6 °F /  14.8 °C 30.3 in /  1027.0 hPa Calm     94 % 0 in /  0.0 mm
09:17 60.8 °F /  16.0 °C 59.2 °F /  15.1 °C 30.3 in /  1027.0 hPa Calm     94 % 0 in /  0.0 mm
09:22 60.8 °F /  16.0 °C 59.2 °F /  15.1 °C 30.3 in /  1027.0 hPa SW 1.2 mph /  1.9 km/h   94 % 0 in /  0.0 mm
09:27 60.4 °F /  15.8 °C 58.5 °F /  14.7 °C 30.3 in /  1027.0 hPa SW 2.3 mph /  3.7 km/h 2.3 mph /  3.7 km/h 93 % 0 in /  0.0 mm
09:32 60.6 °F /  15.9 °C 58.6 °F /  14.8 °C 30.3 in /  1027.0 hPa Calm     93 % 0 in /  0.0 mm
09:37 60.6 °F /  15.9 °C 58.3 °F /  14.6 °C 30.3 in /  1027.0 hPa SSW 1.6 mph /  2.6 km/h   92 % 0 in /  0.0 mm
09:42 61 °F /  16.1 °C 58.8 °F /  14.9 °C 30.4 in /  1028.0 hPa SSE 1.2 mph /  1.9 km/h 1.2 mph /  1.9 km/h 93 % 0 in /  0.0 mm
09:47 61.2 °F /  16.2 °C 58.8 °F /  14.9 °C 30.4 in /  1028.0 hPa SW 1.2 mph /  1.9 km/h   92 % 0 in /  0.0 mm
09:52 62.2 °F /  16.8 °C 60.3 °F /  15.7 °C 30.4 in /  1028.0 hPa South 2.3 mph /  3.7 km/h 2.3 mph /  3.7 km/h 93 % 0 in /  0.0 mm
09:57 62.8 °F /  17.1 °C 60.1 °F /  15.6 °C 30.4 in /  1028.0 hPa SW 2.4 mph /  3.9 km/h   91 % 0 in /  0.0 mm
10:02 62.6 °F /  17.0 °C 59.5 °F /  15.3 °C 30.4 in /  1028.0 hPa SW 2.3 mph /  3.7 km/h   90 % 0 in /  0.0 mm
10:07 64 °F /  17.8 °C 61.3 °F /  16.3 °C 30.4 in /  1028.0 hPa Calm     91 % 0 in /  0.0 mm
10:12 64.4 °F /  18.0 °C 61.2 °F /  16.2 °C 30.4 in /  1028.0 hPa NNE 1.4 mph /  2.3 km/h   89 % 0 in /  0.0 mm
10:17 64.8 °F /  18.2 °C 60.8 °F /  16.0 °C 30.4 in /  1028.0 hPa ENE 2.4 mph /  3.9 km/h 2.4 mph /  3.9 km/h 87 % 0 in /  0.0 mm
10:22 65.1 °F /  18.4 °C 60.8 °F /  16.0 °C 30.4 in /  1028.0 hPa NNE 3.1 mph /  5.0 km/h 3.1 mph /  5.0 km/h 86 % 0 in /  0.0 mm
10:27 66 °F /  18.9 °C 61.3 °F /  16.3 °C 30.4 in /  1028.0 hPa Calm     85 % 0 in /  0.0 mm
10:29 66.6 °F /  19.2 °C 61.9 °F /  16.6 °C 30.4 in /  1028.0 hPa East 1.6 mph /  2.6 km/h 1.6 mph /  2.6 km/h 85 % 0 in /  0.0 mm
10:34 67.5 °F /  19.7 °C 62.1 °F /  16.7 °C 30.4 in /  1028.0 hPa NNE 1.2 mph /  1.9 km/h   83 % 0 in /  0.0 mm
10:39 67.8 °F /  19.9 °C 62.1 °F /  16.7 °C 30.4 in /  1028.0 hPa NNE 1.2 mph /  1.9 km/h   82 % 0 in /  0.0 mm
10:44 68.4 °F /  20.2 °C 62.2 °F /  16.8 °C 30.4 in /  1028.0 hPa ENE 2.3 mph /  3.7 km/h 2.3 mph /  3.7 km/h 81 % 0 in /  0.0 mm
10:49 68.4 °F /  20.2 °C 61.9 °F /  16.6 °C 30.4 in /  1028.0 hPa NNE 2.3 mph /  3.7 km/h 2.3 mph /  3.7 km/h 80 % 0 in /  0.0 mm
10:54 67.8 °F /  19.9 °C 60.3 °F /  15.7 °C 30.4 in /  1028.0 hPa NNE 3.5 mph /  5.6 km/h 3.5 mph /  5.6 km/h 77 % 0 in /  0.0 mm
10:59 68 °F /  20.0 °C 61 °F /  16.1 °C 30.4 in /  1028.0 hPa NE 2.3 mph /  3.7 km/h 2.3 mph /  3.7 km/h 78 % 0 in /  0.0 mm
11:04 68.9 °F /  20.5 °C 61.3 °F /  16.3 °C 30.4 in /  1028.0 hPa NNE 2.6 mph /  4.2 km/h 2.6 mph /  4.2 km/h 77 % 0 in /  0.0 mm
11:09 69.4 °F /  20.8 °C 61.9 °F /  16.6 °C 30.4 in /  1028.0 hPa NNE 4.6 mph /  7.4 km/h 4.6 mph /  7.4 km/h 77 % 0 in /  0.0 mm
11:14 69.8 °F /  21.0 °C 61.5 °F /  16.4 °C 30.4 in /  1028.0 hPa ENE 2.3 mph /  3.7 km/h 2.6 mph /  4.2 km/h 75 % 0 in /  0.0 mm
11:19 70.2 °F /  21.2 °C 61.5 °F /  16.4 °C 30.4 in /  1028.0 hPa ENE 2.6 mph /  4.2 km/h 2.6 mph /  4.2 km/h 74 % 0 in /  0.0 mm
11:24 69.8 °F /  21.0 °C 60.8 °F /  16.0 °C 30.4 in /  1028.0 hPa NNE 3.5 mph /  5.6 km/h 3.5 mph /  5.6 km/h 73 % 0 in /  0.0 mm
11:29 70.5 °F /  21.4 °C 61.9 °F /  16.6 °C 30.4 in /  1028.0 hPa NE 2.4 mph /  3.9 km/h 2.4 mph /  3.9 km/h 74 % 0 in /  0.0 mm
11:34 71.1 °F /  21.7 °C 62.4 °F /  16.9 °C 30.4 in /  1028.0 hPa SW 3.5 mph /  5.6 km/h 3.5 mph /  5.6 km/h 74 % 0 in /  0.0 mm
11:39 71.6 °F /  22.0 °C 62.4 °F /  16.9 °C 30.4 in /  1028.0 hPa NNE 4.6 mph /  7.4 km/h 4.6 mph /  7.4 km/h 73 % 0 in /  0.0 mm
11:44 70.7 °F /  21.5 °C 61.2 °F /  16.2 °C 30.4 in /  1028.0 hPa NE 4.6 mph /  7.4 km/h 4.6 mph /  7.4 km/h 72 % 0 in /  0.0 mm
11:49 70.9 °F /  21.6 °C 61.3 °F /  16.3 °C 30.4 in /  1028.0 hPa ENE 2.3 mph /  3.7 km/h 2.3 mph /  3.7 km/h 72 % 0 in /  0.0 mm
11:54 72.5 °F /  22.5 °C 62.6 °F /  17.0 °C 30.4 in /  1028.0 hPa SSE 2.3 mph /  3.7 km/h 2.3 mph /  3.7 km/h 71 % 0 in /  0.0 mm
11:59 72.1 °F /  22.3 °C 61.9 °F /  16.6 °C 30.4 in /  1028.0 hPa WNW 2.3 mph /  3.7 km/h 2.3 mph /  3.7 km/h 70 % 0 in /  0.0 mm
12:04 71.4 °F /  21.9 °C 60.6 °F /  15.9 °C 30.4 in /  1028.0 hPa ESE 5.8 mph /  9.3 km/h 5.8 mph /  9.3 km/h 69 % 0 in /  0.0 mm
12:09 72 °F /  22.2 °C 61.2 °F /  16.2 °C 30.4 in /  1028.0 hPa ENE 3.5 mph /  5.6 km/h 3.5 mph /  5.6 km/h 69 % 0 in /  0.0 mm
12:14 72.7 °F /  22.6 °C 61.2 °F /  16.2 °C 30.3 in /  1027.0 hPa SSE 3.5 mph /  5.6 km/h 3.5 mph /  5.6 km/h 67 % 0 in /  0.0 mm
12:19 72.7 °F /  22.6 °C 61.2 °F /  16.2 °C 30.3 in /  1027.0 hPa ESE 4.6 mph /  7.4 km/h 4.6 mph /  7.4 km/h 67 % 0 in /  0.0 mm
12:24 73.2 °F /  22.9 °C 61.5 °F /  16.4 °C 30.3 in /  1027.0 hPa South 3.5 mph /  5.6 km/h 3.5 mph /  5.6 km/h 67 % 0 in /  0.0 mm
12:29 73.8 °F /  23.2 °C 60.8 °F /  16.0 °C 30.4 in /  1028.0 hPa SSE 5.8 mph /  9.3 km/h 5.8 mph /  9.3 km/h 64 % 0 in /  0.0 mm
12:34 73 °F /  22.8 °C 60.6 °F /  15.9 °C 30.4 in /  1028.0 hPa NE 3.5 mph /  5.6 km/h 3.5 mph /  5.6 km/h 65 % 0 in /  0.0 mm
12:39 73.8 °F /  23.2 °C 60.8 °F /  16.0 °C 30.4 in /  1028.0 hPa ESE 2.3 mph /  3.7 km/h 2.3 mph /  3.7 km/h 64 % 0 in /  0.0 mm
12:44 74.5 °F /  23.6 °C 61.2 °F /  16.2 °C 30.3 in /  1027.0 hPa ESE 3.5 mph /  5.6 km/h 3.5 mph /  5.6 km/h 63 % 0 in /  0.0 mm
12:49 73.4 °F /  23.0 °C 59.5 °F /  15.3 °C 30.3 in /  1027.0 hPa ENE 4.6 mph /  7.4 km/h 4.6 mph /  7.4 km/h 62 % 0 in /  0.0 mm
12:54 73 °F /  22.8 °C 60.1 °F /  15.6 °C 30.3 in /  1027.0 hPa ENE 2.3 mph /  3.7 km/h 2.3 mph /  3.7 km/h 64 % 0 in /  0.0 mm
12:59 74.3 °F /  23.5 °C 61 °F /  16.1 °C 30.3 in /  1027.0 hPa SSE 3.5 mph /  5.6 km/h 3.5 mph /  5.6 km/h 63 % 0 in /  0.0 mm
13:04 73.6 °F /  23.1 °C 60.3 °F /  15.7 °C 30.3 in /  1027.0 hPa East 3.5 mph /  5.6 km/h 3.5 mph /  5.6 km/h 63 % 0 in /  0.0 mm
13:09 73 °F /  22.8 °C 59.7 °F /  15.4 °C 30.3 in /  1027.0 hPa ESE 3.5 mph /  5.6 km/h 3.5 mph /  5.6 km/h 63 % 0 in /  0.0 mm
13:14 73.4 °F /  23.0 °C 60.1 °F /  15.6 °C 30.3 in /  1027.0 hPa Calm     63 % 0 in /  0.0 mm
13:19 73.6 °F /  23.1 °C 60.3 °F /  15.7 °C 30.3 in /  1027.0 hPa ESE 2.9 mph /  4.7 km/h   63 % 0 in /  0.0 mm
13:24 73.8 °F /  23.2 °C 59.9 °F /  15.5 °C 30.3 in /  1027.0 hPa South 3.5 mph /  5.6 km/h 3.5 mph /  5.6 km/h 62 % 0 in /  0.0 mm
13:29 73 °F /  22.8 °C 59.7 °F /  15.4 °C 30.3 in /  1027.0 hPa South 3.5 mph /  5.6 km/h 3.5 mph /  5.6 km/h 63 % 0 in /  0.0 mm
13:34 73 °F /  22.8 °C 60.1 °F /  15.6 °C 30.3 in /  1027.0 hPa ENE 1.2 mph /  1.9 km/h 1.4 mph /  2.3 km/h 64 % 0 in /  0.0 mm
13:39 73 °F /  22.8 °C 59.2 °F /  15.1 °C 30.3 in /  1027.0 hPa SSE 2.3 mph /  3.7 km/h 2.3 mph /  3.7 km/h 62 % 0 in /  0.0 mm
13:44 73.4 °F /  23.0 °C 59.5 °F /  15.3 °C 30.3 in /  1027.0 hPa East 3.8 mph /  6.1 km/h 3.8 mph /  6.1 km/h 62 % 0 in /  0.0 mm
13:49 73.2 °F /  22.9 °C 59.4 °F /  15.2 °C 30.3 in /  1027.0 hPa ESE 3.5 mph /  5.6 km/h 3.5 mph /  5.6 km/h 62 % 0 in /  0.0 mm
13:54 73.6 °F /  23.1 °C 59.7 °F /  15.4 °C 30.3 in /  1027.0 hPa ESE 3.1 mph /  5.0 km/h 3.1 mph /  5.0 km/h 62 % 0 in /  0.0 mm
13:59 75.2 °F /  24.0 °C 61.3 °F /  16.3 °C 30.3 in /  1026.0 hPa WSW 4.6 mph /  7.4 km/h 4.6 mph /  7.4 km/h 62 % 0 in /  0.0 mm
14:04 75.2 °F /  24.0 °C 59.9 °F /  15.5 °C 30.3 in /  1026.0 hPa East 4.6 mph /  7.4 km/h 4.6 mph /  7.4 km/h 59 % 0 in /  0.0 mm
14:09 74.7 °F /  23.7 °C 60.3 °F /  15.7 °C 30.3 in /  1026.0 hPa East 2.9 mph /  4.7 km/h 2.9 mph /  4.7 km/h 61 % 0 in /  0.0 mm
14:14 75 °F /  23.9 °C 60.3 °F /  15.7 °C 30.3 in /  1026.0 hPa ESE 3.6 mph /  5.8 km/h 3.6 mph /  5.8 km/h 60 % 0 in /  0.0 mm
14:19 75.4 °F /  24.1 °C 60.1 °F /  15.6 °C 30.3 in /  1026.0 hPa SW 1.6 mph /  2.6 km/h   59 % 0 in /  0.0 mm
14:24 75.4 °F /  24.1 °C 60.1 °F /  15.6 °C 30.3 in /  1026.0 hPa SSW 4.6 mph /  7.4 km/h 4.6 mph /  7.4 km/h 59 % 0 in /  0.0 mm
14:29 76.1 °F /  24.5 °C 59.7 °F /  15.4 °C 30.3 in /  1026.0 hPa South 4.6 mph /  7.4 km/h 4.6 mph /  7.4 km/h 57 % 0 in /  0.0 mm
14:34 76.5 °F /  24.7 °C 60.1 °F /  15.6 °C 30.3 in /  1026.0 hPa West 3.1 mph /  5.0 km/h 3.1 mph /  5.0 km/h 57 % 0 in /  0.0 mm
14:39 75.9 °F /  24.4 °C 59.5 °F /  15.3 °C 30.3 in /  1026.0 hPa ESE 4.5 mph /  7.2 km/h 4.5 mph /  7.2 km/h 57 % 0 in /  0.0 mm
14:44 75.7 °F /  24.3 °C 59.4 °F /  15.2 °C 30.3 in /  1026.0 hPa ESE 4.9 mph /  7.9 km/h 4.9 mph /  7.9 km/h 57 % 0 in /  0.0 mm
14:49 75.4 °F /  24.1 °C 58.6 °F /  14.8 °C 30.3 in /  1026.0 hPa WSW 4.6 mph /  7.4 km/h 4.6 mph /  7.4 km/h 56 % 0 in /  0.0 mm
14:54 75.2 °F /  24.0 °C 58.8 °F /  14.9 °C 30.3 in /  1026.0 hPa SE 3.5 mph /  5.6 km/h 3.5 mph /  5.6 km/h 57 % 0 in /  0.0 mm
14:59 75.7 °F /  24.3 °C 59.4 °F /  15.2 °C 30.3 in /  1026.0 hPa South 3.5 mph /  5.6 km/h 3.5 mph /  5.6 km/h 57 % 0 in /  0.0 mm
15:04 77 °F /  25.0 °C 60.6 °F /  15.9 °C 30.3 in /  1026.0 hPa West 3.5 mph /  5.6 km/h 3.5 mph /  5.6 km/h 57 % 0 in /  0.0 mm
15:09 77.2 °F /  25.1 °C 59.7 °F /  15.4 °C 30.3 in /  1026.0 hPa SE 4.6 mph /  7.4 km/h 4.6 mph /  7.4 km/h 55 % 0 in /  0.0 mm
15:14 77 °F /  25.0 °C 59.5 °F /  15.3 °C 30.3 in /  1026.0 hPa SE 4.9 mph /  7.9 km/h 4.9 mph /  7.9 km/h 55 % 0 in /  0.0 mm
15:19 76.3 °F /  24.6 °C 58.8 °F /  14.9 °C 30.3 in /  1026.0 hPa ESE 7.1 mph /  11.4 km/h 7.1 mph /  11.4 km/h 55 % 0 in /  0.0 mm
15:24 75.6 °F /  24.2 °C 58.8 °F /  14.9 °C 30.3 in /  1026.0 hPa SE 6.7 mph /  10.8 km/h 6.7 mph /  10.8 km/h 56 % 0 in /  0.0 mm
15:29 75.6 °F /  24.2 °C 58.8 °F /  14.9 °C 30.3 in /  1024.9 hPa WSW 3.5 mph /  5.6 km/h 3.5 mph /  5.6 km/h 56 % 0 in /  0.0 mm
15:34 75.7 °F /  24.3 °C 58.8 °F /  14.9 °C 30.3 in /  1024.9 hPa SE 6.9 mph /  11.1 km/h 6.9 mph /  11.1 km/h 56 % 0 in /  0.0 mm
15:39 75.4 °F /  24.1 °C 58.1 °F /  14.5 °C 30.3 in /  1024.9 hPa SE 8.5 mph /  13.7 km/h 8.5 mph /  13.7 km/h 55 % 0 in /  0.0 mm
15:44 75 °F /  23.9 °C 58.3 °F /  14.6 °C 30.3 in /  1024.9 hPa East 6.9 mph /  11.1 km/h 6.9 mph /  11.1 km/h 56 % 0 in /  0.0 mm
15:49 75 °F /  23.9 °C 58.3 °F /  14.6 °C 30.3 in /  1024.9 hPa ESE 8.1 mph /  13.0 km/h 8.1 mph /  13.0 km/h 56 % 0 in /  0.0 mm
15:54 74.8 °F /  23.8 °C 58.1 °F /  14.5 °C 30.3 in /  1024.9 hPa East 9.2 mph /  14.8 km/h 9.2 mph /  14.8 km/h 56 % 0 in /  0.0 mm
15:59 74.5 °F /  23.6 °C 57.7 °F /  14.3 °C 30.3 in /  1024.9 hPa East 8.1 mph /  13.0 km/h 8.1 mph /  13.0 km/h 56 % 0 in /  0.0 mm
16:04 74.3 °F /  23.5 °C 58.1 °F /  14.5 °C 30.3 in /  1024.9 hPa SE 7.6 mph /  12.2 km/h 7.6 mph /  12.2 km/h 57 % 0 in /  0.0 mm
16:09 73.9 °F /  23.3 °C 57.7 °F /  14.3 °C 30.3 in /  1024.9 hPa East 4.6 mph /  7.4 km/h 4.6 mph /  7.4 km/h 57 % 0 in /  0.0 mm
16:14 73.8 °F /  23.2 °C 57.6 °F /  14.2 °C 30.2 in /  1023.9 hPa SE 9.2 mph /  14.8 km/h 9.2 mph /  14.8 km/h 57 % 0 in /  0.0 mm
16:19 73.6 °F /  23.1 °C 57.4 °F /  14.1 °C 30.2 in /  1023.9 hPa ESE 6.9 mph /  11.1 km/h 6.9 mph /  11.1 km/h 57 % 0 in /  0.0 mm
16:24 73.4 °F /  23.0 °C 57.7 °F /  14.3 °C 30.2 in /  1023.9 hPa ESE 5.8 mph /  9.3 km/h 5.8 mph /  9.3 km/h 58 % 0 in /  0.0 mm
16:29 73.4 °F /  23.0 °C 57.7 °F /  14.3 °C 30.3 in /  1024.9 hPa SE 5.8 mph /  9.3 km/h 5.8 mph /  9.3 km/h 58 % 0 in /  0.0 mm
16:34 73.2 °F /  22.9 °C 57.6 °F /  14.2 °C 30.3 in /  1024.9 hPa ESE 6.9 mph /  11.1 km/h 6.9 mph /  11.1 km/h 58 % 0 in /  0.0 mm
16:39 72.9 °F /  22.7 °C 57.2 °F /  14.0 °C 30.3 in /  1024.9 hPa East 8.1 mph /  13.0 km/h 8.1 mph /  13.0 km/h 58 % 0 in /  0.0 mm
16:44 72.9 °F /  22.7 °C 57.7 °F /  14.3 °C 30.2 in /  1023.9 hPa ENE 8.1 mph /  13.0 km/h 8.1 mph /  13.0 km/h 59 % 0 in /  0.0 mm
16:49 72.9 °F /  22.7 °C 57.7 °F /  14.3 °C 30.2 in /  1023.9 hPa SE 6.9 mph /  11.1 km/h 6.9 mph /  11.1 km/h 59 % 0 in /  0.0 mm
16:54 72.9 °F /  22.7 °C 57.7 °F /  14.3 °C 30.2 in /  1023.9 hPa ESE 7.1 mph /  11.4 km/h 7.1 mph /  11.4 km/h 59 % 0 in /  0.0 mm
16:59 73.2 °F /  22.9 °C 57.9 °F /  14.4 °C 30.2 in /  1023.9 hPa East 6.9 mph /  11.1 km/h 6.9 mph /  11.1 km/h 59 % 0 in /  0.0 mm
17:04 73.4 °F /  23.0 °C 58.3 °F /  14.6 °C 30.2 in /  1023.9 hPa ESE 6.9 mph /  11.1 km/h 6.9 mph /  11.1 km/h 59 % 0 in /  0.0 mm
17:09 73 °F /  22.8 °C 57.9 °F /  14.4 °C 30.2 in /  1023.9 hPa East 8.1 mph /  13.0 km/h 8.1 mph /  13.0 km/h 59 % 0 in /  0.0 mm
17:14 73 °F /  22.8 °C 57.4 °F /  14.1 °C 30.2 in /  1023.9 hPa SSE 9.2 mph /  14.8 km/h 9.2 mph /  14.8 km/h 58 % 0 in /  0.0 mm
17:19 72.9 °F /  22.7 °C 57.2 °F /  14.0 °C 30.2 in /  1023.9 hPa ESE 6.9 mph /  11.1 km/h 6.9 mph /  11.1 km/h 58 % 0 in /  0.0 mm
17:24 73 °F /  22.8 °C 57.4 °F /  14.1 °C 30.2 in /  1023.9 hPa SSE 8.1 mph /  13.0 km/h 8.1 mph /  13.0 km/h 58 % 0 in /  0.0 mm
17:29 73 °F /  22.8 °C 57.4 °F /  14.1 °C 30.2 in /  1023.9 hPa ENE 7.1 mph /  11.4 km/h 7.1 mph /  11.4 km/h 58 % 0 in /  0.0 mm
17:34 72.9 °F /  22.7 °C 57.2 °F /  14.0 °C 30.2 in /  1023.9 hPa SE 8.1 mph /  13.0 km/h 8.1 mph /  13.0 km/h 58 % 0 in /  0.0 mm
17:39 72.7 °F /  22.6 °C 57 °F /  13.9 °C 30.2 in /  1023.9 hPa SE 6.9 mph /  11.1 km/h 6.9 mph /  11.1 km/h 58 % 0 in /  0.0 mm
17:44 72.5 °F /  22.5 °C 56.8 °F /  13.8 °C 30.3 in /  1024.9 hPa ESE 7.4 mph /  11.9 km/h 7.4 mph /  11.9 km/h 58 % 0 in /  0.0 mm
17:49 72.5 °F /  22.5 °C 56.8 °F /  13.8 °C 30.3 in /  1024.9 hPa East 8.1 mph /  13.0 km/h 8.1 mph /  13.0 km/h 58 % 0 in /  0.0 mm
17:54 72.5 °F /  22.5 °C 56.8 °F /  13.8 °C 30.3 in /  1024.9 hPa ESE 5.8 mph /  9.3 km/h 5.8 mph /  9.3 km/h 58 % 0 in /  0.0 mm
17:59 72.7 °F /  22.6 °C 57 °F /  13.9 °C 30.2 in /  1023.9 hPa ESE 3.5 mph /  5.6 km/h 3.5 mph /  5.6 km/h 58 % 0 in /  0.0 mm
18:04 73 °F /  22.8 °C 57.9 °F /  14.4 °C 30.2 in /  1023.9 hPa West 3.8 mph /  6.1 km/h 3.8 mph /  6.1 km/h 59 % 0 in /  0.0 mm
18:09 73 °F /  22.8 °C 57.4 °F /  14.1 °C 30.2 in /  1023.9 hPa SSE 4.6 mph /  7.4 km/h 4.6 mph /  7.4 km/h 58 % 0 in /  0.0 mm
18:14 72.7 °F /  22.6 °C 57 °F /  13.9 °C 30.2 in /  1023.9 hPa South 3.5 mph /  5.6 km/h 3.5 mph /  5.6 km/h 58 % 0 in /  0.0 mm
18:19 72.5 °F /  22.5 °C 56.8 °F /  13.8 °C 30.2 in /  1023.9 hPa South 4.6 mph /  7.4 km/h 4.6 mph /  7.4 km/h 58 % 0 in /  0.0 mm
18:24 72.3 °F /  22.4 °C 56.7 °F /  13.7 °C 30.2 in /  1023.9 hPa East 2.4 mph /  3.9 km/h 2.4 mph /  3.9 km/h 58 % 0 in /  0.0 mm
18:29 72 °F /  22.2 °C 56.5 °F /  13.6 °C 30.2 in /  1023.9 hPa ESE 6.4 mph /  10.3 km/h 6.4 mph /  10.3 km/h 58 % 0 in /  0.0 mm
18:34 71.8 °F /  22.1 °C 56.1 °F /  13.4 °C 30.2 in /  1023.9 hPa SSE 4.6 mph /  7.4 km/h 4.6 mph /  7.4 km/h 58 % 0 in /  0.0 mm
18:39 71.4 °F /  21.9 °C 56.3 °F /  13.5 °C 30.2 in /  1023.9 hPa ESE 5.8 mph /  9.3 km/h 5.8 mph /  9.3 km/h 59 % 0 in /  0.0 mm
18:44 71.1 °F /  21.7 °C 56.5 °F /  13.6 °C 30.3 in /  1024.9 hPa ESE 2.3 mph /  3.7 km/h 2.3 mph /  3.7 km/h 60 % 0 in /  0.0 mm
18:49 70.7 °F /  21.5 °C 56.1 °F /  13.4 °C 30.3 in /  1024.9 hPa SSE 4.6 mph /  7.4 km/h 4.6 mph /  7.4 km/h 60 % 0 in /  0.0 mm
18:54 70.5 °F /  21.4 °C 55.9 °F /  13.3 °C 30.3 in /  1024.9 hPa ESE 4.7 mph /  7.6 km/h 4.7 mph /  7.6 km/h 60 % 0 in /  0.0 mm
18:59 70.2 °F /  21.2 °C 56.1 °F /  13.4 °C 30.3 in /  1024.9 hPa SE 3.8 mph /  6.1 km/h 3.8 mph /  6.1 km/h 61 % 0 in /  0.0 mm
19:04 70 °F /  21.1 °C 55.9 °F /  13.3 °C 30.3 in /  1024.9 hPa South 3.5 mph /  5.6 km/h   61 % 0 in /  0.0 mm
19:09 69.8 °F /  21.0 °C 55.8 °F /  13.2 °C 30.3 in /  1024.9 hPa Calm     61 % 0 in /  0.0 mm
19:14 69.4 °F /  20.8 °C 55.9 °F /  13.3 °C 30.3 in /  1024.9 hPa Calm     62 % 0 in /  0.0 mm
19:19 69.3 °F /  20.7 °C 55.8 °F /  13.2 °C 30.3 in /  1024.9 hPa SSE 2.3 mph /  3.7 km/h   62 % 0 in /  0.0 mm
19:24 68.9 °F /  20.5 °C 55.8 °F /  13.2 °C 30.3 in /  1024.9 hPa SSE 2.3 mph /  3.7 km/h 2.3 mph /  3.7 km/h 63 % 0 in /  0.0 mm
19:29 68.7 °F /  20.4 °C 55.6 °F /  13.1 °C 30.3 in /  1026.0 hPa Calm     63 % 0 in /  0.0 mm
19:34 68.5 °F /  20.3 °C 55.4 °F /  13.0 °C 30.3 in /  1026.0 hPa SW 1.2 mph /  1.9 km/h 1.2 mph /  1.9 km/h 63 % 0 in /  0.0 mm
19:39 68.4 °F /  20.2 °C 55.8 °F /  13.2 °C 30.3 in /  1026.0 hPa Calm     64 % 0 in /  0.0 mm
19:44 68 °F /  20.0 °C 55.4 °F /  13.0 °C 30.3 in /  1026.0 hPa Calm     64 % 0 in /  0.0 mm
19:49 67.8 °F /  19.9 °C 55.6 °F /  13.1 °C 30.3 in /  1026.0 hPa SW 1.2 mph /  1.9 km/h 1.2 mph /  1.9 km/h 65 % 0 in /  0.0 mm
19:54 67.6 °F /  19.8 °C 55.6 °F /  13.1 °C 30.3 in /  1026.0 hPa SW 1.2 mph /  1.9 km/h   65 % 0 in /  0.0 mm
19:59 67.5 °F /  19.7 °C 55.8 °F /  13.2 °C 30.3 in /  1026.0 hPa WSW 2.4 mph /  3.9 km/h 2.4 mph /  3.9 km/h 66 % 0 in /  0.0 mm
20:04 67.1 °F /  19.5 °C 55.4 °F /  13.0 °C 30.3 in /  1026.0 hPa WSW 1.6 mph /  2.6 km/h 1.6 mph /  2.6 km/h 66 % 0 in /  0.0 mm
20:05 62.1 °F /  16.7 °C 54.9 °F /  12.7 °C 30.3 in /  1026.0 hPa Calm     77 % 0 in /  0.0 mm
20:09 66.9 °F /  19.4 °C 55.2 °F /  12.9 °C 30.3 in /  1026.0 hPa Calm   0.9 mph /  1.4 km/h 66 % 0 in /  0.0 mm
20:14 66.7 °F /  19.3 °C 55 °F /  12.8 °C 30.3 in /  1026.0 hPa SW 1.2 mph /  1.9 km/h   66 % 0 in /  0.0 mm
20:15 61.9 °F /  16.6 °C 54.9 °F /  12.7 °C 30.3 in /  1024.9 hPa Calm     78 % 0 in /  0.0 mm
20:19 66.7 °F /  19.3 °C 55.4 °F /  13.0 °C 30.3 in /  1026.0 hPa Calm     67 % 0 in /  0.0 mm
20:24 66.6 °F /  19.2 °C 55.2 °F /  12.9 °C 30.3 in /  1026.0 hPa Calm     67 % 0 in /  0.0 mm
20:25 61.5 °F /  16.4 °C 54.7 °F /  12.6 °C 30.3 in /  1024.9 hPa Calm     78 % 0 in /  0.0 mm
20:29 66.2 °F /  19.0 °C 54.9 °F /  12.7 °C 30.3 in /  1024.9 hPa Calm     67 % 0 in /  0.0 mm
20:34 66.2 °F /  19.0 °C 55.2 °F /  12.9 °C 30.3 in /  1024.9 hPa Calm     68 % 0 in /  0.0 mm
20:35 61.3 °F /  16.3 °C 54.9 °F /  12.7 °C 30.3 in /  1026.0 hPa Calm     79 % 0 in /  0.0 mm
20:39 66 °F /  18.9 °C 55.6 °F /  13.1 °C 30.3 in /  1024.9 hPa Calm     69 % 0 in /  0.0 mm
20:44 65.8 °F /  18.8 °C 55.4 °F /  13.0 °C 30.3 in /  1026.0 hPa Calm     69 % 0 in /  0.0 mm
20:45 61.2 °F /  16.2 °C 54.7 °F /  12.6 °C 30.3 in /  1026.0 hPa Calm     79 % 0 in /  0.0 mm
20:49 65.8 °F /  18.8 °C 55.4 °F /  13.0 °C 30.3 in /  1026.0 hPa Calm     69 % 0 in /  0.0 mm
20:54 65.8 °F /  18.8 °C 55.4 °F /  13.0 °C 30.3 in /  1026.0 hPa Calm     69 % 0 in /  0.0 mm
20:55 61 °F /  16.1 °C 54.3 °F /  12.4 °C 30.3 in /  1026.0 hPa Calm     79 % 0 in /  0.0 mm
20:59 65.8 °F /  18.8 °C 55.8 °F /  13.2 °C 30.3 in /  1024.9 hPa Calm     70 % 0 in /  0.0 mm
21:04 65.8 °F /  18.8 °C 55.8 °F /  13.2 °C 30.3 in /  1024.9 hPa WSW 1.2 mph /  1.9 km/h   70 % 0 in /  0.0 mm
21:05 60.8 °F /  16.0 °C 54.1 °F /  12.3 °C 30.3 in /  1026.0 hPa Calm     79 % 0 in /  0.0 mm
21:09 65.8 °F /  18.8 °C 55.8 °F /  13.2 °C 30.3 in /  1024.9 hPa WSW 1.4 mph /  2.3 km/h   70 % 0 in /  0.0 mm
21:14 66 °F /  18.9 °C 55.9 °F /  13.3 °C 30.3 in /  1024.9 hPa Calm     70 % 0 in /  0.0 mm
21:15 60.6 °F /  15.9 °C 54.3 °F /  12.4 °C 30.3 in /  1024.9 hPa Calm     80 % 0 in /  0.0 mm
21:19 65.8 °F /  18.8 °C 55.8 °F /  13.2 °C 30.3 in /  1024.9 hPa Calm     70 % 0 in /  0.0 mm
21:24 65.8 °F /  18.8 °C 55.8 °F /  13.2 °C 30.3 in /  1024.9 hPa Calm     70 % 0 in /  0.0 mm
21:25 60.3 °F /  15.7 °C 54.1 °F /  12.3 °C 30.3 in /  1024.9 hPa Calm     80 % 0 in /  0.0 mm
21:29 65.8 °F /  18.8 °C 55.8 °F /  13.2 °C 30.3 in /  1026.0 hPa Calm     70 % 0 in /  0.0 mm
21:34 65.8 °F /  18.8 °C 56.1 °F /  13.4 °C 30.3 in /  1026.0 hPa Calm     71 % 0 in /  0.0 mm
21:35 60.1 °F /  15.6 °C 54 °F /  12.2 °C 30.3 in /  1024.9 hPa Calm   2 mph /  3.2 km/h 80 % 0 in /  0.0 mm
21:39 65.8 °F /  18.8 °C 56.1 °F /  13.4 °C 30.3 in /  1026.0 hPa WSW 1.2 mph /  1.9 km/h   71 % 0 in /  0.0 mm
21:44 65.8 °F /  18.8 °C 56.1 °F /  13.4 °C 30.3 in /  1024.9 hPa Calm     71 % 0 in /  0.0 mm
21:45 60.1 °F /  15.6 °C 54.1 °F /  12.3 °C 30.3 in /  1024.9 hPa Calm     81 % 0 in /  0.0 mm
21:49 65.8 °F /  18.8 °C 56.1 °F /  13.4 °C 30.3 in /  1024.9 hPa Calm     71 % 0 in /  0.0 mm
21:54 65.8 °F /  18.8 °C 56.1 °F /  13.4 °C 30.3 in /  1024.9 hPa Calm     71 % 0 in /  0.0 mm
21:55 60.1 °F /  15.6 °C 54 °F /  12.2 °C 30.3 in /  1024.9 hPa East 1 mph /  1.6 km/h 1 mph /  1.6 km/h 80 % 0 in /  0.0 mm
21:59 65.8 °F /  18.8 °C 56.1 °F /  13.4 °C 30.3 in /  1026.0 hPa Calm     71 % 0 in /  0.0 mm
22:00 65.8 °F /  18.8 °C 56.1 °F /  13.4 °C 30.3 in /  1026.0 hPa Calm     71 % 0 in /  0.0 mm
22:05 65.8 °F /  18.8 °C 56.1 °F /  13.4 °C 30.3 in /  1026.0 hPa Calm     71 % 0 in /  0.0 mm
22:10 65.8 °F /  18.8 °C 56.1 °F /  13.4 °C 30.3 in /  1026.0 hPa Calm     71 % 0 in /  0.0 mm
22:15 65.8 °F /  18.8 °C 56.1 °F /  13.4 °C 30.3 in /  1026.0 hPa Calm     71 % 0 in /  0.0 mm
22:20 65.8 °F /  18.8 °C 56.1 °F /  13.4 °C 30.3 in /  1026.0 hPa WSW 2.3 mph /  3.7 km/h 2.3 mph /  3.7 km/h 71 % 0 in /  0.0 mm
22:25 66 °F /  18.9 °C 56.3 °F /  13.5 °C 30.3 in /  1026.0 hPa Calm     71 % 0 in /  0.0 mm
22:30 66 °F /  18.9 °C 56.3 °F /  13.5 °C 30.3 in /  1026.0 hPa Calm     71 % 0 in /  0.0 mm
22:35 65.8 °F /  18.8 °C 56.1 °F /  13.4 °C 30.3 in /  1026.0 hPa Calm     71 % 0 in /  0.0 mm
22:40 65.8 °F /  18.8 °C 56.1 °F /  13.4 °C 30.3 in /  1026.0 hPa WSW 1.2 mph /  1.9 km/h 1.2 mph /  1.9 km/h 71 % 0 in /  0.0 mm
22:45 65.7 °F /  18.7 °C 56.5 °F /  13.6 °C 30.3 in /  1027.0 hPa WSW 1.2 mph /  1.9 km/h   72 % 0 in /  0.0 mm
22:50 65.5 °F /  18.6 °C 56.1 °F /  13.4 °C 30.3 in /  1027.0 hPa Calm   1 mph /  1.6 km/h 72 % 0 in /  0.0 mm
22:55 65.3 °F /  18.5 °C 55.9 °F /  13.3 °C 30.3 in /  1027.0 hPa Calm     72 % 0 in /  0.0 mm
23:00 65.1 °F /  18.4 °C 55.9 °F /  13.3 °C 30.3 in /  1026.0 hPa Calm     72 % 0 in /  0.0 mm
23:05 64.9 °F /  18.3 °C 55.8 °F /  13.2 °C 30.3 in /  1026.0 hPa Calm     72 % 0 in /  0.0 mm
23:10 64.8 °F /  18.2 °C 55.6 °F /  13.1 °C 30.3 in /  1026.0 hPa WSW 2 mph /  3.2 km/h   72 % 0 in /  0.0 mm
23:15 64.2 °F /  17.9 °C 55 °F /  12.8 °C 30.3 in /  1026.0 hPa WSW 2 mph /  3.2 km/h 2 mph /  3.2 km/h 72 % 0 in /  0.0 mm
23:20 63.9 °F /  17.7 °C 55 °F /  12.8 °C 30.3 in /  1026.0 hPa WSW 1.4 mph /  2.3 km/h 1.4 mph /  2.3 km/h 73 % 0 in /  0.0 mm
23:25 63.7 °F /  17.6 °C 54.9 °F /  12.7 °C 30.3 in /  1026.0 hPa WSW 1 mph /  1.6 km/h 2 mph /  3.2 km/h 73 % 0 in /  0.0 mm
23:30 63.7 °F /  17.6 °C 54.9 °F /  12.7 °C 30.3 in /  1026.0 hPa Calm   2 mph /  3.2 km/h 73 % 0 in /  0.0 mm
23:35 63.7 °F /  17.6 °C 55.2 °F /  12.9 °C 30.3 in /  1026.0 hPa Calm     74 % 0 in /  0.0 mm
23:40 63.7 °F /  17.6 °C 55.2 °F /  12.9 °C 30.3 in /  1026.0 hPa Calm     74 % 0 in /  0.0 mm
23:45 63.5 °F /  17.5 °C 55 °F /  12.8 °C 30.3 in /  1026.0 hPa Calm     74 % 0 in /  0.0 mm
23:50 63.1 °F /  17.3 °C 54.7 °F /  12.6 °C 30.3 in /  1026.0 hPa WSW 1.2 mph /  1.9 km/h 1.2 mph /  1.9 km/h 74 % 0 in /  0.0 mm
23:55 63.1 °F /  17.3 °C 55 °F /  12.8 °C 30.3 in /  1026.0 hPa Calm     75 % 0 in /  0.0 mm
Meteo Sesrovires
Elogis d' Weather Underground - 4.25 mb

Guio original per  Jim McMurry - jmcmurry@mwt.net Adaptat per a la plantilla per  Wim van der Kuil - Leuven-Template.eu

Trobareu la nostra informacio del temps tambe a:

Weather Underground

AWEKAS